createdAt,value
2018-07-09T00:02:05.963Z,1.70
2018-07-09T00:04:34.096Z,1.30
2018-07-09T00:07:02.103Z,1.47
2018-07-09T00:09:30.122Z,1.47
2018-07-09T00:11:58.138Z,1.40
2018-07-09T00:14:26.178Z,1.40
2018-07-09T00:16:54.219Z,1.50
2018-07-09T00:19:22.235Z,1.67
2018-07-09T00:21:50.249Z,1.83
2018-07-09T00:24:18.262Z,1.53
2018-07-09T00:26:46.282Z,1.80
2018-07-09T00:29:14.299Z,2.00
2018-07-09T00:31:42.312Z,1.67
2018-07-09T00:34:10.319Z,1.80
2018-07-09T00:36:38.342Z,1.70
2018-07-09T00:39:06.602Z,1.70
2018-07-09T00:41:35.812Z,1.83
2018-07-09T00:44:03.830Z,1.77
2018-07-09T00:46:31.847Z,1.60
2018-07-09T00:49:00.327Z,1.70
2018-07-09T00:51:28.346Z,1.50
2018-07-09T00:53:56.354Z,1.70
2018-07-09T00:56:24.182Z,1.90
2018-07-09T00:58:52.316Z,1.80
2018-07-09T01:01:20.333Z,1.75
2018-07-09T01:03:48.141Z,1.60
2018-07-09T01:06:16.167Z,1.80
2018-07-09T01:08:44.603Z,1.60
2018-07-09T01:11:24.010Z,1.73
2018-07-09T01:13:52.014Z,1.97
2018-07-09T01:16:20.055Z,1.60
2018-07-09T01:18:48.070Z,1.93
2018-07-09T01:21:16.104Z,1.70
2018-07-09T01:26:11.493Z,1.85
2018-07-09T01:28:40.547Z,1.60
2018-07-09T01:31:08.579Z,1.65
2018-07-09T01:33:36.761Z,1.70
2018-07-09T01:41:11.430Z,5.33
2018-07-09T01:43:39.462Z,4.50
2018-07-09T01:46:07.498Z,4.70
2018-07-09T01:48:35.526Z,4.60
2018-07-09T01:51:03.562Z,3.80
2018-07-09T01:53:31.583Z,4.23
2018-07-09T01:55:59.610Z,4.20
2018-07-09T01:58:27.707Z,3.73
2018-07-09T02:00:55.764Z,3.40
2018-07-09T02:03:23.783Z,2.60
2018-07-09T02:05:51.806Z,2.70
2018-07-09T02:08:19.818Z,2.67
2018-07-09T02:10:47.855Z,2.40
2018-07-09T02:13:15.871Z,2.30
2018-07-09T02:15:43.913Z,2.40
2018-07-09T02:18:11.926Z,1.97
2018-07-09T02:20:39.943Z,2.43
2018-07-09T02:23:07.975Z,2.23
2018-07-09T02:25:36.018Z,1.97
2018-07-09T02:28:04.039Z,2.13
2018-07-09T02:30:32.066Z,2.30
2018-07-09T02:33:00.087Z,2.00
2018-07-09T02:35:28.107Z,1.90
2018-07-09T02:37:56.134Z,1.90
2018-07-09T02:40:24.166Z,1.90
2018-07-09T02:42:51.984Z,1.70
2018-07-09T02:45:19.993Z,1.40
2018-07-09T02:47:48.095Z,1.53
2018-07-09T02:50:16.167Z,1.70
2018-07-09T02:52:44.206Z,1.60
2018-07-09T02:55:12.234Z,1.80
2018-07-09T02:57:40.279Z,1.80
2018-07-09T03:00:08.287Z,2.10
2018-07-09T03:02:36.319Z,1.80
2018-07-09T03:05:04.367Z,1.50
2018-07-09T03:07:32.394Z,1.70
2018-07-09T03:10:00.426Z,1.67
2018-07-09T03:12:28.447Z,1.93
2018-07-09T03:14:56.469Z,2.37
2018-07-09T03:17:24.498Z,1.60
2018-07-09T03:19:52.583Z,1.70
2018-07-09T03:22:20.596Z,1.47
2018-07-09T03:24:48.611Z,1.70
2018-07-09T03:27:16.630Z,2.00
2018-07-09T03:29:44.469Z,1.80
2018-07-09T03:32:12.477Z,1.60
2018-07-09T03:34:40.486Z,1.80
2018-07-09T03:37:08.508Z,1.90
2018-07-09T03:39:36.574Z,1.80
2018-07-09T03:42:04.634Z,1.97
2018-07-09T03:44:32.674Z,1.77
2018-07-09T03:47:00.698Z,1.70
2018-07-09T03:49:28.715Z,1.80
2018-07-09T03:51:56.734Z,2.00
2018-07-09T04:09:09.134Z,2.60
2018-07-09T04:11:37.150Z,3.20
2018-07-09T04:16:32.597Z,4.50
2018-07-09T04:21:28.007Z,14.00
2018-07-09T04:23:56.035Z,13.30
2018-07-09T04:28:51.442Z,9.70
2018-07-09T04:31:19.458Z,8.10
2018-07-09T04:33:47.491Z,7.20
2018-07-09T04:38:42.885Z,9.17
2018-07-09T04:41:10.925Z,6.30
2018-07-09T04:43:38.934Z,5.27
2018-07-09T04:46:07.185Z,4.70
2018-07-09T04:48:35.205Z,4.23
2018-07-09T04:51:03.227Z,6.57
2018-07-09T04:53:31.293Z,5.03
2018-07-09T04:55:59.287Z,4.33
2018-07-09T04:58:27.296Z,3.60
2018-07-09T05:00:55.321Z,3.63
2018-07-09T05:03:23.335Z,2.40
2018-07-09T05:08:18.722Z,2.13
2018-07-09T05:10:46.529Z,2.27
2018-07-09T05:18:09.098Z,2.70
2018-07-09T05:23:04.499Z,2.40
2018-07-09T05:25:32.526Z,2.15
2018-07-09T05:59:56.570Z,3.40
2018-07-09T06:12:13.930Z,3.60
2018-07-09T06:39:15.439Z,1.90
2018-07-09T06:41:43.471Z,2.17
2018-07-09T06:49:06.230Z,2.40
2018-07-09T06:51:34.243Z,2.00
2018-07-09T06:54:02.263Z,1.60
2018-07-09T06:56:30.287Z,1.80
2018-07-09T06:58:58.397Z,2.20
2018-07-09T07:03:53.775Z,1.90
2018-07-09T07:06:21.799Z,1.80
2018-07-09T07:08:49.888Z,2.10
2018-07-09T07:18:39.907Z,2.10
2018-07-09T07:23:35.286Z,1.90
2018-07-09T07:28:30.462Z,2.20
2018-07-09T07:40:48.038Z,2.40
2018-07-09T07:43:16.054Z,2.20
2018-07-09T08:25:02.078Z,2.70
2018-07-09T08:34:52.539Z,2.40
2018-07-09T08:47:11.318Z,2.30
2018-07-09T08:49:39.330Z,2.80
2018-07-09T08:52:07.148Z,2.43
2018-07-09T08:54:35.178Z,2.30
2018-07-09T08:57:03.577Z,2.00
2018-07-09T09:53:33.635Z,2.40
2018-07-09T10:00:56.166Z,1.90
2018-07-09T10:13:13.737Z,1.73
2018-07-09T10:15:41.766Z,1.93
2018-07-09T10:18:09.783Z,2.42
2018-07-09T10:23:05.372Z,2.20
2018-07-09T10:30:27.946Z,2.17
2018-07-09T10:32:55.945Z,2.30
2018-07-09T10:35:23.981Z,2.25
2018-07-09T10:37:51.985Z,1.98
2018-07-09T10:40:20.015Z,2.10
2018-07-09T10:42:48.026Z,2.00
2018-07-09T10:50:10.771Z,2.20
2018-07-09T10:55:06.174Z,2.10
2018-07-09T10:57:34.187Z,2.80
2018-07-09T11:00:02.199Z,2.30
2018-07-09T11:14:47.038Z,2.43
2018-07-09T11:34:26.713Z,2.50
2018-07-09T11:41:49.475Z,3.27
2018-07-09T12:21:07.907Z,2.60
2018-07-09T12:33:25.366Z,1.75
2018-07-09T12:35:53.386Z,1.90
2018-07-09T12:38:21.185Z,1.95
2018-07-09T12:40:49.199Z,1.80
2018-07-09T12:43:17.009Z,2.12
2018-07-09T12:45:45.011Z,2.42
2018-07-09T12:48:13.030Z,2.10
2018-07-09T12:50:41.070Z,1.90
2018-07-09T13:07:53.003Z,2.12
2018-07-09T13:37:21.767Z,1.90
2018-07-09T13:39:49.783Z,1.60
2018-07-09T13:42:17.789Z,1.70
2018-07-09T13:44:45.807Z,1.70
2018-07-09T13:47:13.826Z,1.40
2018-07-09T14:01:58.967Z,1.35
2018-07-09T14:04:26.780Z,1.40
2018-07-09T14:06:54.811Z,1.25
2018-07-09T14:09:22.850Z,1.00
2018-07-09T14:11:50.866Z,0.98
2018-07-09T14:14:18.870Z,1.20
2018-07-09T14:16:46.882Z,1.10
2018-07-09T14:19:26.418Z,1.40
2018-07-09T14:21:54.464Z,1.30
2018-07-09T14:46:29.083Z,1.50
2018-07-09T14:53:51.679Z,1.20
2018-07-09T15:11:03.943Z,1.07
2018-07-09T15:13:31.951Z,1.10
2018-07-09T15:16:00.075Z,1.20
2018-07-09T15:30:44.718Z,1.22
2018-07-09T15:57:46.163Z,1.20
2018-07-09T16:00:14.180Z,1.25
2018-07-09T16:12:31.890Z,1.10
2018-07-09T16:17:27.277Z,1.40
2018-07-09T16:19:55.293Z,1.20
2018-07-09T17:09:03.782Z,1.20
2018-07-09T17:11:31.585Z,1.10
2018-07-09T17:13:59.602Z,1.47
2018-07-09T17:16:27.626Z,1.10
2018-07-09T17:18:55.642Z,1.67
2018-07-09T17:21:23.667Z,1.50
2018-07-09T17:23:51.674Z,1.62
2018-07-09T17:26:19.768Z,1.20
2018-07-09T17:28:47.767Z,1.27
2018-07-09T17:33:43.146Z,1.50
2018-07-09T17:46:00.374Z,1.30
2018-07-09T17:48:28.406Z,1.37
2018-07-09T17:50:56.427Z,2.08
2018-07-09T17:53:24.464Z,2.10
2018-07-09T17:58:19.758Z,2.02
2018-07-09T18:00:47.789Z,1.40
2018-07-09T18:08:10.371Z,1.62
2018-07-09T18:10:38.431Z,1.50
2018-07-09T18:15:33.825Z,1.62
2018-07-09T18:18:01.816Z,1.52
2018-07-09T18:20:29.846Z,2.05
2018-07-09T18:22:57.662Z,1.60
2018-07-09T18:25:25.716Z,1.40
2018-07-09T18:27:53.747Z,1.70
2018-07-09T18:30:21.792Z,1.30
2018-07-09T18:32:49.805Z,1.85
2018-07-09T18:35:17.889Z,1.75
2018-07-09T18:37:45.874Z,1.37
2018-07-09T18:40:13.912Z,1.70
2018-07-09T18:42:41.947Z,1.75
2018-07-09T18:45:09.998Z,1.47
2018-07-09T18:47:38.038Z,1.57
2018-07-09T18:50:06.125Z,1.10
2018-07-09T18:52:34.138Z,1.50
2018-07-09T18:55:02.163Z,1.50
2018-07-09T18:57:30.178Z,1.70
2018-07-09T18:59:58.209Z,1.70
2018-07-09T19:02:26.231Z,1.30
2018-07-09T19:04:54.270Z,1.57
2018-07-09T19:07:22.847Z,1.72
2018-07-09T19:09:51.149Z,1.23
2018-07-09T19:12:19.190Z,1.57
2018-07-09T19:14:48.143Z,1.80
2018-07-09T19:18:27.841Z,1.87
2018-07-09T19:23:22.091Z,1.60
2018-07-09T19:25:49.438Z,1.52
2018-07-09T19:28:16.593Z,1.70
2018-07-09T19:30:43.639Z,1.80
2018-07-09T19:33:10.747Z,1.63
2018-07-09T19:35:38.105Z,2.00
2018-07-09T19:38:05.207Z,1.65
2018-07-09T19:40:32.573Z,1.40
2018-07-09T19:42:59.683Z,1.67
2018-07-09T19:45:26.786Z,1.53
2018-07-09T19:47:53.953Z,2.10
2018-07-09T19:50:21.006Z,1.70
2018-07-09T19:52:48.102Z,1.50
2018-07-09T19:57:42.102Z,1.50
2018-07-09T20:00:09.225Z,1.37
2018-07-09T20:02:36.318Z,1.50
2018-07-09T20:05:03.493Z,1.87
2018-07-09T20:07:30.535Z,1.63
2018-07-09T20:10:03.078Z,1.70
2018-07-09T20:12:35.498Z,1.50
2018-07-09T20:15:08.166Z,1.57
2018-07-09T20:17:36.110Z,2.00
2018-07-09T20:20:03.202Z,1.67
2018-07-09T20:22:30.746Z,1.53
2018-07-09T20:24:57.850Z,1.70
2018-07-09T20:27:24.946Z,1.70
2018-07-09T20:29:52.058Z,1.60
2018-07-09T20:32:19.159Z,1.60
2018-07-09T20:34:46.266Z,1.83
2018-07-09T20:37:13.391Z,1.70
2018-07-09T20:39:40.525Z,1.43
2018-07-09T20:42:07.599Z,1.70
2018-07-09T20:44:34.694Z,1.60
2018-07-09T20:47:01.792Z,1.70
2018-07-09T20:49:28.894Z,1.60
2018-07-09T20:51:56.054Z,1.80
2018-07-09T20:54:23.230Z,1.77
2018-07-09T20:56:50.397Z,1.83
2018-07-09T20:59:17.498Z,2.00
2018-07-09T21:01:44.624Z,2.00
2018-07-09T21:06:44.266Z,1.90
2018-07-09T21:26:22.861Z,1.67
2018-07-09T21:28:50.132Z,1.50
2018-07-09T21:46:00.102Z,1.65
2018-07-09T21:58:15.739Z,1.70
2018-07-09T22:10:30.962Z,1.93
2018-07-09T22:25:12.542Z,1.70
2018-07-09T22:30:06.528Z,1.83
2018-07-09T22:32:34.558Z,1.83
2018-07-09T22:35:02.570Z,1.60
2018-07-09T22:37:30.696Z,1.53
2018-07-09T22:39:58.768Z,1.60
2018-07-09T22:42:26.742Z,2.10
2018-07-09T22:44:54.751Z,1.57
2018-07-09T22:47:22.787Z,1.77
2018-07-09T23:02:07.498Z,1.40
2018-07-09T23:04:35.510Z,1.60
2018-07-09T23:07:03.534Z,1.63
2018-07-09T23:10:46.414Z,1.73
2018-07-09T23:18:39.027Z,1.87
2018-07-09T23:24:10.931Z,1.37
2018-07-09T23:29:05.199Z,1.50
2018-07-09T23:31:32.322Z,1.83
2018-07-09T23:36:26.321Z,1.80
2018-07-09T23:38:53.726Z,1.83
2018-07-09T23:43:48.126Z,1.90
2018-07-09T23:48:42.148Z,1.65
2018-07-09T23:51:09.272Z,1.80
2018-07-09T23:53:36.367Z,1.80
2018-07-09T23:59:51.898Z,1.73
